sensor_id;sensor_type;location;lat;lon;timestamp;P1;durP1;ratioP1;P2;durP2;ratioP2
8478;SDS011;4276;49.354;6.804;2023-11-21T00:01:32;3.60;;;2.08;;
8478;SDS011;4276;49.354;6.804;2023-11-21T00:03:59;2.55;;;1.90;;
8478;SDS011;4276;49.354;6.804;2023-11-21T00:06:27;4.40;;;2.28;;
8478;SDS011;4276;49.354;6.804;2023-11-21T00:08:56;3.20;;;2.40;;
8478;SDS011;4276;49.354;6.804;2023-11-21T00:11:23;2.45;;;2.25;;
8478;SDS011;4276;49.354;6.804;2023-11-21T00:13:51;2.45;;;2.20;;
8478;SDS011;4276;49.354;6.804;2023-11-21T00:16:17;2.83;;;2.47;;
8478;SDS011;4276;49.354;6.804;2023-11-21T00:18:44;2.58;;;2.30;;
8478;SDS011;4276;49.354;6.804;2023-11-21T00:21:12;3.75;;;2.67;;
8478;SDS011;4276;49.354;6.804;2023-11-21T00:23:39;3.47;;;2.65;;
8478;SDS011;4276;49.354;6.804;2023-11-21T00:26:06;3.00;;;2.80;;
8478;SDS011;4276;49.354;6.804;2023-11-21T00:28:33;3.83;;;3.08;;
8478;SDS011;4276;49.354;6.804;2023-11-21T00:31:00;3.88;;;3.00;;
8478;SDS011;4276;49.354;6.804;2023-11-21T00:33:27;6.10;;;3.10;;
8478;SDS011;4276;49.354;6.804;2023-11-21T00:35:54;3.53;;;3.22;;
8478;SDS011;4276;49.354;6.804;2023-11-21T00:38:23;3.83;;;3.50;;
8478;SDS011;4276;49.354;6.804;2023-11-21T00:40:49;3.65;;;3.35;;
8478;SDS011;4276;49.354;6.804;2023-11-21T00:43:18;3.80;;;3.45;;
8478;SDS011;4276;49.354;6.804;2023-11-21T00:45:47;3.78;;;3.15;;
8478;SDS011;4276;49.354;6.804;2023-11-21T00:48:15;3.70;;;3.38;;
8478;SDS011;4276;49.354;6.804;2023-11-21T00:50:42;3.85;;;3.28;;
8478;SDS011;4276;49.354;6.804;2023-11-21T00:53:08;6.25;;;3.75;;
8478;SDS011;4276;49.354;6.804;2023-11-21T00:55:35;3.55;;;3.25;;
8478;SDS011;4276;49.354;6.804;2023-11-21T00:58:01;4.50;;;3.80;;
8478;SDS011;4276;49.354;6.804;2023-11-21T01:00:30;4.00;;;3.70;;
8478;SDS011;4276;49.354;6.804;2023-11-21T01:02:57;3.90;;;3.60;;
8478;SDS011;4276;49.354;6.804;2023-11-21T01:05:24;4.38;;;3.97;;
8478;SDS011;4276;49.354;6.804;2023-11-21T01:07:51;4.80;;;4.35;;
8478;SDS011;4276;49.354;6.804;2023-11-21T01:10:17;5.43;;;4.93;;
8478;SDS011;4276;49.354;6.804;2023-11-21T01:12:44;6.15;;;5.45;;
8478;SDS011;4276;49.354;6.804;2023-11-21T01:15:11;5.15;;;4.75;;
8478;SDS011;4276;49.354;6.804;2023-11-21T01:17:38;8.40;;;6.30;;
8478;SDS011;4276;49.354;6.804;2023-11-21T01:20:06;8.15;;;6.72;;
8478;SDS011;4276;49.354;6.804;2023-11-21T01:22:40;7.53;;;6.40;;
8478;SDS011;4276;49.354;6.804;2023-11-21T01:25:07;7.80;;;6.10;;
8478;SDS011;4276;49.354;6.804;2023-11-21T01:27:34;7.22;;;6.38;;
8478;SDS011;4276;49.354;6.804;2023-11-21T01:30:01;6.20;;;5.70;;
8478;SDS011;4276;49.354;6.804;2023-11-21T01:32:28;6.38;;;5.47;;
8478;SDS011;4276;49.354;6.804;2023-11-21T01:34:55;5.32;;;4.72;;
8478;SDS011;4276;49.354;6.804;2023-11-21T01:37:21;5.22;;;4.70;;
8478;SDS011;4276;49.354;6.804;2023-11-21T01:39:48;5.75;;;4.60;;
8478;SDS011;4276;49.354;6.804;2023-11-21T01:42:15;5.25;;;4.07;;
8478;SDS011;4276;49.354;6.804;2023-11-21T01:44:41;4.63;;;4.22;;
8478;SDS011;4276;49.354;6.804;2023-11-21T01:47:08;5.57;;;4.50;;
8478;SDS011;4276;49.354;6.804;2023-11-21T01:49:35;4.57;;;4.28;;
8478;SDS011;4276;49.354;6.804;2023-11-21T01:52:02;4.25;;;3.80;;
8478;SDS011;4276;49.354;6.804;2023-11-21T01:54:30;4.88;;;4.18;;
8478;SDS011;4276;49.354;6.804;2023-11-21T01:56:59;4.15;;;3.85;;
8478;SDS011;4276;49.354;6.804;2023-11-21T01:59:36;5.72;;;3.45;;
8478;SDS011;4276;49.354;6.804;2023-11-21T02:02:06;3.45;;;3.15;;
8478;SDS011;4276;49.354;6.804;2023-11-21T02:04:33;4.03;;;3.53;;
8478;SDS011;4276;49.354;6.804;2023-11-21T02:07:00;3.88;;;3.58;;
8478;SDS011;4276;49.354;6.804;2023-11-21T02:09:27;8.07;;;5.32;;
8478;SDS011;4276;49.354;6.804;2023-11-21T02:11:56;6.20;;;5.15;;
8478;SDS011;4276;49.354;6.804;2023-11-21T02:14:27;6.25;;;5.68;;
8478;SDS011;4276;49.354;6.804;2023-11-21T02:16:54;6.18;;;5.57;;
8478;SDS011;4276;49.354;6.804;2023-11-21T02:19:23;7.03;;;6.32;;
8478;SDS011;4276;49.354;6.804;2023-11-21T02:21:52;9.02;;;5.55;;
8478;SDS011;4276;49.354;6.804;2023-11-21T02:24:19;8.32;;;5.03;;
8478;SDS011;4276;49.354;6.804;2023-11-21T02:26:48;8.48;;;5.05;;
8478;SDS011;4276;49.354;6.804;2023-11-21T02:29:18;6.90;;;4.72;;
8478;SDS011;4276;49.354;6.804;2023-11-21T02:31:49;4.95;;;4.45;;
8478;SDS011;4276;49.354;6.804;2023-11-21T02:34:17;6.38;;;4.45;;
8478;SDS011;4276;49.354;6.804;2023-11-21T02:36:44;3.58;;;3.38;;
8478;SDS011;4276;49.354;6.804;2023-11-21T02:39:11;4.03;;;3.40;;
8478;SDS011;4276;49.354;6.804;2023-11-21T02:41:38;3.92;;;3.63;;
8478;SDS011;4276;49.354;6.804;2023-11-21T02:44:08;3.85;;;3.45;;
8478;SDS011;4276;49.354;6.804;2023-11-21T02:46:36;3.88;;;3.58;;
8478;SDS011;4276;49.354;6.804;2023-11-21T02:49:03;3.67;;;3.30;;
8478;SDS011;4276;49.354;6.804;2023-11-21T02:51:30;3.38;;;3.08;;
8478;SDS011;4276;49.354;6.804;2023-11-21T02:53:56;3.72;;;3.42;;
8478;SDS011;4276;49.354;6.804;2023-11-21T02:56:25;3.80;;;3.50;;
8478;SDS011;4276;49.354;6.804;2023-11-21T02:58:55;4.20;;;3.70;;
8478;SDS011;4276;49.354;6.804;2023-11-21T03:01:21;3.78;;;3.42;;
8478;SDS011;4276;49.354;6.804;2023-11-21T03:03:50;4.13;;;3.42;;
8478;SDS011;4276;49.354;6.804;2023-11-21T03:06:19;5.00;;;3.75;;
8478;SDS011;4276;49.354;6.804;2023-11-21T03:08:46;4.28;;;3.88;;
8478;SDS011;4276;49.354;6.804;2023-11-21T03:11:13;5.38;;;4.10;;
8478;SDS011;4276;49.354;6.804;2023-11-21T03:13:40;5.43;;;4.93;;
8478;SDS011;4276;49.354;6.804;2023-11-21T03:16:11;5.78;;;4.75;;
8478;SDS011;4276;49.354;6.804;2023-11-21T03:18:38;6.13;;;4.40;;
8478;SDS011;4276;49.354;6.804;2023-11-21T03:21:05;5.53;;;4.03;;
8478;SDS011;4276;49.354;6.804;2023-11-21T03:23:34;5.40;;;4.03;;
8478;SDS011;4276;49.354;6.804;2023-11-21T03:26:01;3.90;;;3.60;;
8478;SDS011;4276;49.354;6.804;2023-11-21T03:28:30;3.45;;;3.25;;
8478;SDS011;4276;49.354;6.804;2023-11-21T03:30:57;3.58;;;3.28;;
8478;SDS011;4276;49.354;6.804;2023-11-21T03:33:24;4.82;;;3.10;;
8478;SDS011;4276;49.354;6.804;2023-11-21T03:35:50;3.40;;;3.10;;
8478;SDS011;4276;49.354;6.804;2023-11-21T03:38:19;3.50;;;3.20;;
8478;SDS011;4276;49.354;6.804;2023-11-21T03:40:46;3.55;;;3.25;;
8478;SDS011;4276;49.354;6.804;2023-11-21T03:43:13;3.58;;;3.38;;
8478;SDS011;4276;49.354;6.804;2023-11-21T03:45:40;3.92;;;3.17;;
8478;SDS011;4276;49.354;6.804;2023-11-21T03:48:07;3.20;;;3.00;;
8478;SDS011;4276;49.354;6.804;2023-11-21T03:50:34;3.60;;;3.30;;
8478;SDS011;4276;49.354;6.804;2023-11-21T03:53:01;3.97;;;3.67;;
8478;SDS011;4276;49.354;6.804;2023-11-21T03:55:27;3.40;;;3.10;;
8478;SDS011;4276;49.354;6.804;2023-11-21T03:57:54;4.53;;;3.08;;
8478;SDS011;4276;49.354;6.804;2023-11-21T04:00:21;3.90;;;3.50;;
8478;SDS011;4276;49.354;6.804;2023-11-21T04:02:48;4.45;;;4.10;;
8478;SDS011;4276;49.354;6.804;2023-11-21T04:05:14;2.97;;;2.78;;
8478;SDS011;4276;49.354;6.804;2023-11-21T04:07:41;3.50;;;3.20;;
8478;SDS011;4276;49.354;6.804;2023-11-21T04:10:08;3.60;;;3.30;;
8478;SDS011;4276;49.354;6.804;2023-11-21T04:12:36;4.38;;;3.15;;
8478;SDS011;4276;49.354;6.804;2023-11-21T04:15:03;3.35;;;3.15;;
8478;SDS011;4276;49.354;6.804;2023-11-21T04:17:30;3.88;;;3.50;;
8478;SDS011;4276;49.354;6.804;2023-11-21T04:19:57;3.97;;;3.50;;
8478;SDS011;4276;49.354;6.804;2023-11-21T04:22:23;3.20;;;3.00;;
8478;SDS011;4276;49.354;6.804;2023-11-21T04:24:50;3.15;;;2.95;;
8478;SDS011;4276;49.354;6.804;2023-11-21T04:27:16;3.40;;;3.20;;
8478;SDS011;4276;49.354;6.804;2023-11-21T04:29:46;3.50;;;3.08;;
8478;SDS011;4276;49.354;6.804;2023-11-21T04:32:12;3.75;;;3.45;;
8478;SDS011;4276;49.354;6.804;2023-11-21T04:34:39;3.97;;;3.58;;
8478;SDS011;4276;49.354;6.804;2023-11-21T04:37:05;3.33;;;2.92;;
8478;SDS011;4276;49.354;6.804;2023-11-21T04:39:32;3.17;;;2.70;;
8478;SDS011;4276;49.354;6.804;2023-11-21T04:41:59;3.08;;;2.88;;
8478;SDS011;4276;49.354;6.804;2023-11-21T04:44:26;2.90;;;2.70;;
8478;SDS011;4276;49.354;6.804;2023-11-21T04:46:52;3.10;;;2.90;;
8478;SDS011;4276;49.354;6.804;2023-11-21T04:49:19;4.20;;;2.78;;
8478;SDS011;4276;49.354;6.804;2023-11-21T04:51:46;5.25;;;3.20;;
8478;SDS011;4276;49.354;6.804;2023-11-21T04:54:13;3.35;;;3.05;;
8478;SDS011;4276;49.354;6.804;2023-11-21T04:56:40;3.67;;;3.38;;
8478;SDS011;4276;49.354;6.804;2023-11-21T04:59:06;3.17;;;2.80;;
8478;SDS011;4276;49.354;6.804;2023-11-21T05:01:33;3.13;;;2.90;;
8478;SDS011;4276;49.354;6.804;2023-11-21T05:03:59;3.00;;;2.80;;
8478;SDS011;4276;49.354;6.804;2023-11-21T05:06:26;3.15;;;2.65;;
8478;SDS011;4276;49.354;6.804;2023-11-21T05:08:53;3.05;;;2.85;;
8478;SDS011;4276;49.354;6.804;2023-11-21T05:11:23;5.55;;;3.53;;
8478;SDS011;4276;49.354;6.804;2023-11-21T05:13:53;4.25;;;2.83;;
8478;SDS011;4276;49.354;6.804;2023-11-21T05:16:21;5.20;;;3.40;;
8478;SDS011;4276;49.354;6.804;2023-11-21T05:18:48;3.05;;;2.85;;
8478;SDS011;4276;49.354;6.804;2023-11-21T05:21:16;3.85;;;2.40;;
8478;SDS011;4276;49.354;6.804;2023-11-21T05:23:43;2.63;;;2.42;;
8478;SDS011;4276;49.354;6.804;2023-11-21T05:26:10;3.63;;;2.47;;
8478;SDS011;4276;49.354;6.804;2023-11-21T05:28:36;2.75;;;2.30;;
8478;SDS011;4276;49.354;6.804;2023-11-21T05:31:03;2.38;;;2.10;;
8478;SDS011;4276;49.354;6.804;2023-11-21T05:33:41;2.47;;;2.30;;
8478;SDS011;4276;49.354;6.804;2023-11-21T05:36:08;2.83;;;2.13;;
8478;SDS011;4276;49.354;6.804;2023-11-21T05:38:37;2.20;;;2.10;;
8478;SDS011;4276;49.354;6.804;2023-11-21T05:41:04;2.28;;;2.10;;
8478;SDS011;4276;49.354;6.804;2023-11-21T05:43:31;2.42;;;2.20;;
8478;SDS011;4276;49.354;6.804;2023-11-21T05:45:58;2.90;;;2.42;;
8478;SDS011;4276;49.354;6.804;2023-11-21T05:48:25;3.05;;;2.63;;
8478;SDS011;4276;49.354;6.804;2023-11-21T05:50:52;3.08;;;2.70;;
8478;SDS011;4276;49.354;6.804;2023-11-21T05:53:19;2.42;;;2.33;;
8478;SDS011;4276;49.354;6.804;2023-11-21T05:55:45;2.63;;;2.53;;
8478;SDS011;4276;49.354;6.804;2023-11-21T05:58:12;3.00;;;2.33;;
8478;SDS011;4276;49.354;6.804;2023-11-21T06:00:40;3.17;;;2.20;;
8478;SDS011;4276;49.354;6.804;2023-11-21T06:03:06;2.60;;;2.40;;
8478;SDS011;4276;49.354;6.804;2023-11-21T06:05:34;2.75;;;2.65;;
8478;SDS011;4276;49.354;6.804;2023-11-21T06:08:01;2.70;;;2.50;;
8478;SDS011;4276;49.354;6.804;2023-11-21T06:10:28;2.90;;;2.53;;
8478;SDS011;4276;49.354;6.804;2023-11-21T06:12:55;3.03;;;2.75;;
8478;SDS011;4276;49.354;6.804;2023-11-21T06:15:29;3.00;;;2.80;;
8478;SDS011;4276;49.354;6.804;2023-11-21T06:17:56;4.47;;;2.83;;
8478;SDS011;4276;49.354;6.804;2023-11-21T06:20:23;3.30;;;3.00;;
8478;SDS011;4276;49.354;6.804;2023-11-21T06:22:50;3.38;;;3.08;;
8478;SDS011;4276;49.354;6.804;2023-11-21T06:25:17;4.00;;;3.40;;
8478;SDS011;4276;49.354;6.804;2023-11-21T06:27:45;3.70;;;3.40;;
8478;SDS011;4276;49.354;6.804;2023-11-21T06:30:12;4.20;;;3.65;;
8478;SDS011;4276;49.354;6.804;2023-11-21T06:32:40;3.42;;;3.17;;
8478;SDS011;4276;49.354;6.804;2023-11-21T06:35:08;3.50;;;3.30;;
8478;SDS011;4276;49.354;6.804;2023-11-21T06:37:36;3.90;;;3.60;;
8478;SDS011;4276;49.354;6.804;2023-11-21T06:40:03;4.30;;;3.55;;
8478;SDS011;4276;49.354;6.804;2023-11-21T06:42:30;3.45;;;3.25;;
8478;SDS011;4276;49.354;6.804;2023-11-21T06:44:57;4.22;;;3.50;;
8478;SDS011;4276;49.354;6.804;2023-11-21T06:47:26;4.00;;;3.70;;
8478;SDS011;4276;49.354;6.804;2023-11-21T06:49:54;4.07;;;3.78;;
8478;SDS011;4276;49.354;6.804;2023-11-21T06:52:20;4.18;;;3.78;;
8478;SDS011;4276;49.354;6.804;2023-11-21T06:54:48;7.00;;;3.92;;
8478;SDS011;4276;49.354;6.804;2023-11-21T06:57:17;4.13;;;3.58;;
8478;SDS011;4276;49.354;6.804;2023-11-21T06:59:44;4.95;;;4.43;;
8478;SDS011;4276;49.354;6.804;2023-11-21T07:02:10;10.20;;;8.57;;
8478;SDS011;4276;49.354;6.804;2023-11-21T07:04:38;4.53;;;4.15;;
8478;SDS011;4276;49.354;6.804;2023-11-21T07:07:06;4.25;;;3.95;;
8478;SDS011;4276;49.354;6.804;2023-11-21T07:09:33;4.20;;;3.90;;
8478;SDS011;4276;49.354;6.804;2023-11-21T07:12:00;4.28;;;3.90;;
8478;SDS011;4276;49.354;6.804;2023-11-21T07:14:28;4.70;;;4.30;;
8478;SDS011;4276;49.354;6.804;2023-11-21T07:16:54;4.68;;;4.30;;
8478;SDS011;4276;49.354;6.804;2023-11-21T07:19:21;4.72;;;4.30;;
8478;SDS011;4276;49.354;6.804;2023-11-21T07:21:48;5.40;;;4.05;;
8478;SDS011;4276;49.354;6.804;2023-11-21T07:24:17;4.10;;;3.80;;
8478;SDS011;4276;49.354;6.804;2023-11-21T07:26:44;4.07;;;3.67;;
8478;SDS011;4276;49.354;6.804;2023-11-21T07:29:11;5.63;;;4.30;;
8478;SDS011;4276;49.354;6.804;2023-11-21T07:31:39;4.78;;;4.35;;
8478;SDS011;4276;49.354;6.804;2023-11-21T07:34:07;4.57;;;4.18;;
8478;SDS011;4276;49.354;6.804;2023-11-21T07:36:34;6.25;;;3.92;;
8478;SDS011;4276;49.354;6.804;2023-11-21T07:39:03;4.50;;;3.92;;
8478;SDS011;4276;49.354;6.804;2023-11-21T07:41:30;5.07;;;4.25;;
8478;SDS011;4276;49.354;6.804;2023-11-21T07:43:57;4.40;;;4.00;;
8478;SDS011;4276;49.354;6.804;2023-11-21T07:46:25;4.30;;;3.88;;
8478;SDS011;4276;49.354;6.804;2023-11-21T07:48:53;4.30;;;3.70;;
8478;SDS011;4276;49.354;6.804;2023-11-21T07:51:21;3.83;;;3.53;;
8478;SDS011;4276;49.354;6.804;2023-11-21T07:53:48;3.70;;;3.40;;
8478;SDS011;4276;49.354;6.804;2023-11-21T07:56:15;3.60;;;3.40;;
8478;SDS011;4276;49.354;6.804;2023-11-21T07:58:42;4.18;;;3.78;;
8478;SDS011;4276;49.354;6.804;2023-11-21T08:01:08;3.88;;;3.58;;
8478;SDS011;4276;49.354;6.804;2023-11-21T08:03:35;3.80;;;3.13;;
8478;SDS011;4276;49.354;6.804;2023-11-21T08:06:02;3.60;;;3.30;;
8478;SDS011;4276;49.354;6.804;2023-11-21T08:08:32;3.17;;;2.92;;
8478;SDS011;4276;49.354;6.804;2023-11-21T08:10:59;3.38;;;3.10;;
8478;SDS011;4276;49.354;6.804;2023-11-21T08:13:28;3.50;;;3.00;;
8478;SDS011;4276;49.354;6.804;2023-11-21T08:15:57;3.65;;;3.20;;
8478;SDS011;4276;49.354;6.804;2023-11-21T08:18:31;3.15;;;2.95;;
8478;SDS011;4276;49.354;6.804;2023-11-21T08:20:58;3.35;;;3.05;;
8478;SDS011;4276;49.354;6.804;2023-11-21T08:23:25;3.13;;;2.92;;
8478;SDS011;4276;49.354;6.804;2023-11-21T08:25:52;2.85;;;2.65;;
8478;SDS011;4276;49.354;6.804;2023-11-21T08:28:20;3.03;;;2.83;;
8478;SDS011;4276;49.354;6.804;2023-11-21T08:30:52;3.08;;;2.88;;
8478;SDS011;4276;49.354;6.804;2023-11-21T08:33:20;3.20;;;3.00;;
8478;SDS011;4276;49.354;6.804;2023-11-21T08:35:47;2.90;;;2.70;;
8478;SDS011;4276;49.354;6.804;2023-11-21T08:38:15;2.90;;;2.60;;
8478;SDS011;4276;49.354;6.804;2023-11-21T08:40:41;3.28;;;2.85;;
8478;SDS011;4276;49.354;6.804;2023-11-21T08:43:08;3.42;;;3.13;;
8478;SDS011;4276;49.354;6.804;2023-11-21T08:45:35;3.50;;;3.20;;
8478;SDS011;4276;49.354;6.804;2023-11-21T08:48:01;3.80;;;3.17;;
8478;SDS011;4276;49.354;6.804;2023-11-21T08:50:28;3.55;;;3.25;;
8478;SDS011;4276;49.354;6.804;2023-11-21T08:52:55;4.50;;;4.13;;
8478;SDS011;4276;49.354;6.804;2023-11-21T08:55:22;4.40;;;4.03;;
8478;SDS011;4276;49.354;6.804;2023-11-21T08:57:49;3.50;;;3.30;;
8478;SDS011;4276;49.354;6.804;2023-11-21T09:00:17;4.00;;;3.70;;
8478;SDS011;4276;49.354;6.804;2023-11-21T09:02:45;4.43;;;3.92;;
8478;SDS011;4276;49.354;6.804;2023-11-21T09:05:13;6.28;;;5.68;;
8478;SDS011;4276;49.354;6.804;2023-11-21T09:07:40;5.35;;;4.63;;
8478;SDS011;4276;49.354;6.804;2023-11-21T09:10:08;6.78;;;4.75;;
8478;SDS011;4276;49.354;6.804;2023-11-21T09:12:36;5.47;;;4.40;;
8478;SDS011;4276;49.354;6.804;2023-11-21T09:15:06;5.50;;;4.97;;
8478;SDS011;4276;49.354;6.804;2023-11-21T09:17:36;5.10;;;4.70;;
8478;SDS011;4276;49.354;6.804;2023-11-21T09:20:03;4.53;;;4.13;;
8478;SDS011;4276;49.354;6.804;2023-11-21T09:22:32;4.38;;;3.85;;
8478;SDS011;4276;49.354;6.804;2023-11-21T09:24:59;4.03;;;3.63;;
8478;SDS011;4276;49.354;6.804;2023-11-21T09:27:26;4.50;;;4.10;;
8478;SDS011;4276;49.354;6.804;2023-11-21T09:29:55;4.20;;;3.78;;
8478;SDS011;4276;49.354;6.804;2023-11-21T09:32:22;3.80;;;3.50;;
8478;SDS011;4276;49.354;6.804;2023-11-21T09:34:51;3.92;;;3.63;;
8478;SDS011;4276;49.354;6.804;2023-11-21T09:37:20;3.92;;;3.63;;
8478;SDS011;4276;49.354;6.804;2023-11-21T09:39:47;4.18;;;3.80;;
8478;SDS011;4276;49.354;6.804;2023-11-21T09:42:22;4.35;;;3.63;;
8478;SDS011;4276;49.354;6.804;2023-11-21T09:45:03;4.93;;;3.78;;
8478;SDS011;4276;49.354;6.804;2023-11-21T09:47:34;4.78;;;3.92;;
8478;SDS011;4276;49.354;6.804;2023-11-21T09:50:02;4.13;;;3.83;;
8478;SDS011;4276;49.354;6.804;2023-11-21T09:52:29;4.07;;;3.78;;
8478;SDS011;4276;49.354;6.804;2023-11-21T09:54:58;4.47;;;3.70;;
8478;SDS011;4276;49.354;6.804;2023-11-21T09:57:27;4.70;;;3.60;;
8478;SDS011;4276;49.354;6.804;2023-11-21T09:59:54;4.05;;;3.75;;
8478;SDS011;4276;49.354;6.804;2023-11-21T10:02:24;3.95;;;3.50;;
8478;SDS011;4276;49.354;6.804;2023-11-21T10:04:52;3.70;;;3.50;;
8478;SDS011;4276;49.354;6.804;2023-11-21T10:07:20;4.20;;;3.90;;
8478;SDS011;4276;49.354;6.804;2023-11-21T10:09:47;3.95;;;3.60;;
8478;SDS011;4276;49.354;6.804;2023-11-21T10:12:14;4.85;;;4.45;;
8478;SDS011;4276;49.354;6.804;2023-11-21T10:14:41;4.70;;;4.30;;
8478;SDS011;4276;49.354;6.804;2023-11-21T10:17:12;6.95;;;3.92;;
8478;SDS011;4276;49.354;6.804;2023-11-21T10:19:39;6.40;;;4.20;;
8478;SDS011;4276;49.354;6.804;2023-11-21T10:22:06;3.75;;;3.45;;
8478;SDS011;4276;49.354;6.804;2023-11-21T10:24:33;3.95;;;3.58;;
8478;SDS011;4276;49.354;6.804;2023-11-21T10:27:14;3.70;;;3.40;;
8478;SDS011;4276;49.354;6.804;2023-11-21T10:29:40;2.88;;;2.67;;
8478;SDS011;4276;49.354;6.804;2023-11-21T10:32:08;3.90;;;3.60;;
8478;SDS011;4276;49.354;6.804;2023-11-21T10:34:37;3.60;;;3.30;;
8478;SDS011;4276;49.354;6.804;2023-11-21T10:37:12;5.25;;;3.97;;
8478;SDS011;4276;49.354;6.804;2023-11-21T10:39:39;3.63;;;3.33;;
8478;SDS011;4276;49.354;6.804;2023-11-21T10:42:10;3.60;;;3.40;;
8478;SDS011;4276;49.354;6.804;2023-11-21T10:44:36;3.80;;;3.50;;
8478;SDS011;4276;49.354;6.804;2023-11-21T10:47:04;3.85;;;3.53;;
8478;SDS011;4276;49.354;6.804;2023-11-21T10:49:31;3.78;;;3.38;;
8478;SDS011;4276;49.354;6.804;2023-11-21T10:51:59;3.63;;;3.33;;
8478;SDS011;4276;49.354;6.804;2023-11-21T10:54:25;3.38;;;3.17;;
8478;SDS011;4276;49.354;6.804;2023-11-21T10:56:59;3.45;;;3.15;;
8478;SDS011;4276;49.354;6.804;2023-11-21T10:59:30;3.60;;;3.30;;
8478;SDS011;4276;49.354;6.804;2023-11-21T11:01:59;3.50;;;3.20;;
8478;SDS011;4276;49.354;6.804;2023-11-21T11:04:29;3.47;;;3.17;;
8478;SDS011;4276;49.354;6.804;2023-11-21T11:06:57;3.45;;;3.15;;
8478;SDS011;4276;49.354;6.804;2023-11-21T11:09:25;3.15;;;2.90;;
8478;SDS011;4276;49.354;6.804;2023-11-21T11:11:52;3.35;;;2.80;;
8478;SDS011;4276;49.354;6.804;2023-11-21T11:14:20;3.10;;;2.90;;
8478;SDS011;4276;49.354;6.804;2023-11-21T11:16:53;2.65;;;2.55;;
8478;SDS011;4276;49.354;6.804;2023-11-21T11:19:20;5.30;;;3.13;;
8478;SDS011;4276;49.354;6.804;2023-11-21T11:27:37;2.72;;;2.60;;
8478;SDS011;4276;49.354;6.804;2023-11-21T11:33:14;2.65;;;2.55;;
8478;SDS011;4276;49.354;6.804;2023-11-21T11:35:52;3.10;;;2.80;;
8478;SDS011;4276;49.354;6.804;2023-11-21T11:38:24;2.92;;;2.75;;
8478;SDS011;4276;49.354;6.804;2023-11-21T11:40:53;3.10;;;2.90;;
8478;SDS011;4276;49.354;6.804;2023-11-21T11:43:24;3.58;;;3.28;;
8478;SDS011;4276;49.354;6.804;2023-11-21T11:45:52;3.17;;;2.97;;
8478;SDS011;4276;49.354;6.804;2023-11-21T11:48:22;3.33;;;3.00;;
8478;SDS011;4276;49.354;6.804;2023-11-21T11:51:06;3.70;;;3.33;;
8478;SDS011;4276;49.354;6.804;2023-11-21T11:53:36;3.17;;;2.90;;
8478;SDS011;4276;49.354;6.804;2023-11-21T11:58:57;3.08;;;2.88;;
8478;SDS011;4276;49.354;6.804;2023-11-21T12:01:26;3.45;;;3.15;;
8478;SDS011;4276;49.354;6.804;2023-11-21T12:06:43;3.17;;;2.97;;
8478;SDS011;4276;49.354;6.804;2023-11-21T12:09:19;3.35;;;3.05;;
8478;SDS011;4276;49.354;6.804;2023-11-21T12:11:51;3.53;;;3.08;;
8478;SDS011;4276;49.354;6.804;2023-11-21T12:14:18;3.67;;;3.38;;
8478;SDS011;4276;49.354;6.804;2023-11-21T12:16:44;3.20;;;3.00;;
8478;SDS011;4276;49.354;6.804;2023-11-21T12:19:11;3.58;;;3.08;;
8478;SDS011;4276;49.354;6.804;2023-11-21T12:21:39;3.53;;;3.03;;
8478;SDS011;4276;49.354;6.804;2023-11-21T12:24:10;3.42;;;3.17;;
8478;SDS011;4276;49.354;6.804;2023-11-21T12:26:41;3.10;;;2.80;;
8478;SDS011;4276;49.354;6.804;2023-11-21T12:29:08;3.72;;;3.42;;
8478;SDS011;4276;49.354;6.804;2023-11-21T12:31:37;2.95;;;2.75;;
8478;SDS011;4276;49.354;6.804;2023-11-21T12:34:04;3.28;;;3.00;;
8478;SDS011;4276;49.354;6.804;2023-11-21T12:36:32;3.58;;;3.33;;
8478;SDS011;4276;49.354;6.804;2023-11-21T12:39:00;3.40;;;3.20;;
8478;SDS011;4276;49.354;6.804;2023-11-21T12:41:29;4.00;;;3.70;;
8478;SDS011;4276;49.354;6.804;2023-11-21T12:43:57;3.50;;;3.20;;
8478;SDS011;4276;49.354;6.804;2023-11-21T12:46:24;3.30;;;3.10;;
8478;SDS011;4276;49.354;6.804;2023-11-21T12:48:56;3.42;;;3.22;;
8478;SDS011;4276;49.354;6.804;2023-11-21T12:51:24;3.35;;;3.15;;
8478;SDS011;4276;49.354;6.804;2023-11-21T12:53:51;3.30;;;3.00;;
8478;SDS011;4276;49.354;6.804;2023-11-21T12:56:21;3.92;;;3.53;;
8478;SDS011;4276;49.354;6.804;2023-11-21T12:58:49;3.58;;;3.28;;
8478;SDS011;4276;49.354;6.804;2023-11-21T13:01:18;3.47;;;3.17;;
8478;SDS011;4276;49.354;6.804;2023-11-21T13:03:48;4.03;;;3.70;;
8478;SDS011;4276;49.354;6.804;2023-11-21T13:06:18;3.65;;;3.42;;
8478;SDS011;4276;49.354;6.804;2023-11-21T13:08:52;3.80;;;3.60;;
8478;SDS011;4276;49.354;6.804;2023-11-21T13:11:25;4.13;;;3.40;;
8478;SDS011;4276;49.354;6.804;2023-11-21T13:13:53;3.80;;;3.50;;
8478;SDS011;4276;49.354;6.804;2023-11-21T13:16:23;6.80;;;3.70;;
8478;SDS011;4276;49.354;6.804;2023-11-21T13:18:50;3.83;;;3.47;;
8478;SDS011;4276;49.354;6.804;2023-11-21T13:21:16;4.28;;;3.80;;
8478;SDS011;4276;49.354;6.804;2023-11-21T13:23:43;4.05;;;3.75;;
8478;SDS011;4276;49.354;6.804;2023-11-21T13:26:12;4.05;;;3.72;;
8478;SDS011;4276;49.354;6.804;2023-11-21T13:28:42;3.60;;;3.30;;
8478;SDS011;4276;49.354;6.804;2023-11-21T13:31:13;4.10;;;3.80;;
8478;SDS011;4276;49.354;6.804;2023-11-21T13:33:57;4.32;;;4.03;;
8478;SDS011;4276;49.354;6.804;2023-11-21T13:36:31;4.00;;;3.60;;
8478;SDS011;4276;49.354;6.804;2023-11-21T13:39:12;3.97;;;3.55;;
8478;SDS011;4276;49.354;6.804;2023-11-21T13:41:46;4.18;;;3.78;;
8478;SDS011;4276;49.354;6.804;2023-11-21T13:44:15;4.00;;;3.70;;
8478;SDS011;4276;49.354;6.804;2023-11-21T13:46:53;4.43;;;4.03;;
8478;SDS011;4276;49.354;6.804;2023-11-21T13:49:22;5.00;;;4.47;;
8478;SDS011;4276;49.354;6.804;2023-11-21T13:51:49;4.15;;;3.85;;
8478;SDS011;4276;49.354;6.804;2023-11-21T13:54:19;4.80;;;3.70;;
8478;SDS011;4276;49.354;6.804;2023-11-21T13:56:47;4.03;;;3.72;;
8478;SDS011;4276;49.354;6.804;2023-11-21T13:59:16;3.75;;;3.45;;
8478;SDS011;4276;49.354;6.804;2023-11-21T14:01:50;5.07;;;3.80;;
8478;SDS011;4276;49.354;6.804;2023-11-21T14:04:26;3.75;;;3.42;;
8478;SDS011;4276;49.354;6.804;2023-11-21T14:06:59;4.50;;;4.10;;
8478;SDS011;4276;49.354;6.804;2023-11-21T14:09:37;3.90;;;3.60;;
8478;SDS011;4276;49.354;6.804;2023-11-21T14:12:10;6.07;;;5.57;;
8478;SDS011;4276;49.354;6.804;2023-11-21T14:14:39;5.95;;;5.03;;
8478;SDS011;4276;49.354;6.804;2023-11-21T14:17:06;6.03;;;5.53;;
8478;SDS011;4276;49.354;6.804;2023-11-21T14:19:33;5.15;;;4.65;;
8478;SDS011;4276;49.354;6.804;2023-11-21T14:22:03;4.93;;;4.53;;
8478;SDS011;4276;49.354;6.804;2023-11-21T14:24:30;5.60;;;5.10;;
8478;SDS011;4276;49.354;6.804;2023-11-21T14:26:58;4.65;;;4.25;;
8478;SDS011;4276;49.354;6.804;2023-11-21T14:29:25;5.65;;;5.00;;
8478;SDS011;4276;49.354;6.804;2023-11-21T14:31:53;5.03;;;4.63;;
8478;SDS011;4276;49.354;6.804;2023-11-21T14:34:23;4.43;;;4.10;;
8478;SDS011;4276;49.354;6.804;2023-11-21T14:36:50;4.63;;;4.22;;
8478;SDS011;4276;49.354;6.804;2023-11-21T14:39:17;4.85;;;4.45;;
8478;SDS011;4276;49.354;6.804;2023-11-21T14:41:50;4.35;;;4.00;;
8478;SDS011;4276;49.354;6.804;2023-11-21T14:44:18;4.78;;;4.22;;
8478;SDS011;4276;49.354;6.804;2023-11-21T14:46:46;4.82;;;4.43;;
8478;SDS011;4276;49.354;6.804;2023-11-21T14:49:16;5.43;;;4.50;;
8478;SDS011;4276;49.354;6.804;2023-11-21T14:51:46;3.88;;;3.50;;
8478;SDS011;4276;49.354;6.804;2023-11-21T14:54:30;4.63;;;4.20;;
8478;SDS011;4276;49.354;6.804;2023-11-21T14:57:07;4.18;;;3.85;;
8478;SDS011;4276;49.354;6.804;2023-11-21T14:59:43;5.30;;;4.80;;
8478;SDS011;4276;49.354;6.804;2023-11-21T15:02:13;6.60;;;5.20;;
8478;SDS011;4276;49.354;6.804;2023-11-21T15:04:44;5.00;;;4.50;;
8478;SDS011;4276;49.354;6.804;2023-11-21T15:07:11;4.72;;;4.32;;
8478;SDS011;4276;49.354;6.804;2023-11-21T15:09:38;4.82;;;4.43;;
8478;SDS011;4276;49.354;6.804;2023-11-21T15:12:10;4.93;;;4.53;;
8478;SDS011;4276;49.354;6.804;2023-11-21T15:14:44;5.60;;;5.07;;
8478;SDS011;4276;49.354;6.804;2023-11-21T15:17:14;6.03;;;5.43;;
8478;SDS011;4276;49.354;6.804;2023-11-21T15:19:48;6.80;;;5.53;;
8478;SDS011;4276;49.354;6.804;2023-11-21T15:22:16;5.63;;;5.13;;
8478;SDS011;4276;49.354;6.804;2023-11-21T15:24:44;7.35;;;6.65;;
8478;SDS011;4276;49.354;6.804;2023-11-21T15:27:13;6.65;;;6.03;;
8478;SDS011;4276;49.354;6.804;2023-11-21T15:29:40;5.88;;;5.30;;
8478;SDS011;4276;49.354;6.804;2023-11-21T15:32:06;6.00;;;5.40;;
8478;SDS011;4276;49.354;6.804;2023-11-21T15:34:34;6.05;;;5.45;;
8478;SDS011;4276;49.354;6.804;2023-11-21T15:37:02;5.93;;;5.32;;